sensor_id;sensor_type;location;lat;lon;timestamp;P1;durP1;ratioP1;P2;durP2;ratioP2
73747;SDS011;62056;52.130;5.428;2022-11-15T00:00:30;24.17;;;11.80;;
73747;SDS011;62056;52.130;5.428;2022-11-15T00:02:57;20.00;;;10.18;;
73747;SDS011;62056;52.130;5.428;2022-11-15T00:05:23;36.83;;;15.07;;
73747;SDS011;62056;52.130;5.428;2022-11-15T00:07:51;28.33;;;12.77;;
73747;SDS011;62056;52.130;5.428;2022-11-15T00:10:21;22.90;;;10.63;;
73747;SDS011;62056;52.130;5.428;2022-11-15T00:12:48;29.90;;;13.25;;
73747;SDS011;62056;52.130;5.428;2022-11-15T00:15:14;34.47;;;13.07;;
73747;SDS011;62056;52.130;5.428;2022-11-15T00:17:41;33.78;;;14.60;;
73747;SDS011;62056;52.130;5.428;2022-11-15T00:20:07;32.27;;;13.00;;
73747;SDS011;62056;52.130;5.428;2022-11-15T00:22:34;31.88;;;13.82;;
73747;SDS011;62056;52.130;5.428;2022-11-15T00:25:01;24.85;;;11.48;;
73747;SDS011;62056;52.130;5.428;2022-11-15T00:27:28;21.08;;;11.13;;
73747;SDS011;62056;52.130;5.428;2022-11-15T00:29:54;34.45;;;13.88;;
73747;SDS011;62056;52.130;5.428;2022-11-15T00:32:21;30.07;;;14.83;;
73747;SDS011;62056;52.130;5.428;2022-11-15T00:34:47;42.42;;;15.88;;
73747;SDS011;62056;52.130;5.428;2022-11-15T00:37:14;37.88;;;15.00;;
73747;SDS011;62056;52.130;5.428;2022-11-15T00:39:41;34.35;;;14.82;;
73747;SDS011;62056;52.130;5.428;2022-11-15T00:42:07;39.00;;;17.02;;
73747;SDS011;62056;52.130;5.428;2022-11-15T00:44:34;46.60;;;18.00;;
73747;SDS011;62056;52.130;5.428;2022-11-15T00:47:00;34.25;;;14.32;;
73747;SDS011;62056;52.130;5.428;2022-11-15T00:49:27;35.13;;;13.48;;
73747;SDS011;62056;52.130;5.428;2022-11-15T00:51:54;39.95;;;15.30;;
73747;SDS011;62056;52.130;5.428;2022-11-15T00:54:20;37.65;;;14.23;;
73747;SDS011;62056;52.130;5.428;2022-11-15T00:56:47;42.47;;;16.37;;
73747;SDS011;62056;52.130;5.428;2022-11-15T00:59:13;37.28;;;14.63;;
73747;SDS011;62056;52.130;5.428;2022-11-15T01:01:40;34.58;;;14.35;;
73747;SDS011;62056;52.130;5.428;2022-11-15T01:04:06;41.90;;;17.30;;
73747;SDS011;62056;52.130;5.428;2022-11-15T01:06:33;37.40;;;14.73;;
73747;SDS011;62056;52.130;5.428;2022-11-15T01:08:59;34.93;;;16.00;;
73747;SDS011;62056;52.130;5.428;2022-11-15T01:11:26;42.35;;;16.38;;
73747;SDS011;62056;52.130;5.428;2022-11-15T01:13:52;43.03;;;17.13;;
73747;SDS011;62056;52.130;5.428;2022-11-15T01:16:20;35.05;;;13.48;;
73747;SDS011;62056;52.130;5.428;2022-11-15T01:18:47;38.08;;;14.95;;
73747;SDS011;62056;52.130;5.428;2022-11-15T01:21:15;39.93;;;15.37;;
73747;SDS011;62056;52.130;5.428;2022-11-15T01:23:43;45.40;;;18.67;;
73747;SDS011;62056;52.130;5.428;2022-11-15T01:26:12;55.85;;;21.58;;
73747;SDS011;62056;52.130;5.428;2022-11-15T01:28:40;61.08;;;25.42;;
73747;SDS011;62056;52.130;5.428;2022-11-15T01:31:15;49.22;;;20.25;;
73747;SDS011;62056;52.130;5.428;2022-11-15T01:33:47;32.07;;;15.97;;
73747;SDS011;62056;52.130;5.428;2022-11-15T01:36:18;31.80;;;13.88;;
73747;SDS011;62056;52.130;5.428;2022-11-15T01:38:54;32.67;;;13.20;;
73747;SDS011;62056;52.130;5.428;2022-11-15T01:41:23;33.30;;;14.70;;
73747;SDS011;62056;52.130;5.428;2022-11-15T01:43:52;30.63;;;13.80;;
73747;SDS011;62056;52.130;5.428;2022-11-15T01:46:32;38.27;;;15.23;;
73747;SDS011;62056;52.130;5.428;2022-11-15T01:49:10;27.75;;;14.68;;
73747;SDS011;62056;52.130;5.428;2022-11-15T01:51:39;34.65;;;14.95;;
73747;SDS011;62056;52.130;5.428;2022-11-15T01:54:08;34.63;;;13.93;;
73747;SDS011;62056;52.130;5.428;2022-11-15T01:56:42;37.95;;;15.15;;
73747;SDS011;62056;52.130;5.428;2022-11-15T01:59:12;45.60;;;19.40;;
73747;SDS011;62056;52.130;5.428;2022-11-15T02:01:40;36.72;;;14.23;;
73747;SDS011;62056;52.130;5.428;2022-11-15T02:04:08;28.58;;;14.32;;
73747;SDS011;62056;52.130;5.428;2022-11-15T02:06:40;36.22;;;14.95;;
73747;SDS011;62056;52.130;5.428;2022-11-15T02:09:07;24.08;;;11.35;;
73747;SDS011;62056;52.130;5.428;2022-11-15T02:11:33;40.73;;;14.60;;
73747;SDS011;62056;52.130;5.428;2022-11-15T02:14:00;29.95;;;14.45;;
73747;SDS011;62056;52.130;5.428;2022-11-15T02:16:48;23.52;;;10.95;;
73747;SDS011;62056;52.130;5.428;2022-11-15T02:19:27;37.47;;;17.02;;
73747;SDS011;62056;52.130;5.428;2022-11-15T02:25:04;26.60;;;13.03;;
73747;SDS011;62056;52.130;5.428;2022-11-15T02:27:52;41.08;;;15.93;;
73747;SDS011;62056;52.130;5.428;2022-11-15T02:30:51;32.47;;;16.58;;
73747;SDS011;62056;52.130;5.428;2022-11-15T02:36:09;34.83;;;14.85;;
73747;SDS011;62056;52.130;5.428;2022-11-15T02:38:45;47.57;;;17.60;;
73747;SDS011;62056;52.130;5.428;2022-11-15T02:41:24;43.53;;;20.13;;
73747;SDS011;62056;52.130;5.428;2022-11-15T02:44:02;49.47;;;22.60;;
73747;SDS011;62056;52.130;5.428;2022-11-15T02:46:45;38.20;;;17.02;;
73747;SDS011;62056;52.130;5.428;2022-11-15T02:49:34;88.55;;;34.50;;
73747;SDS011;62056;52.130;5.428;2022-11-15T02:52:01;53.60;;;24.30;;
73747;SDS011;62056;52.130;5.428;2022-11-15T02:54:29;27.95;;;15.60;;
73747;SDS011;62056;52.130;5.428;2022-11-15T02:57:02;44.22;;;20.42;;
73747;SDS011;62056;52.130;5.428;2022-11-15T03:05:37;31.87;;;17.57;;
73747;SDS011;62056;52.130;5.428;2022-11-15T03:08:22;30.67;;;14.65;;
73747;SDS011;62056;52.130;5.428;2022-11-15T03:11:02;32.72;;;15.73;;
73747;SDS011;62056;52.130;5.428;2022-11-15T03:13:36;23.40;;;12.80;;
73747;SDS011;62056;52.130;5.428;2022-11-15T03:16:05;27.70;;;13.73;;
73747;SDS011;62056;52.130;5.428;2022-11-15T03:18:37;23.33;;;12.87;;
73747;SDS011;62056;52.130;5.428;2022-11-15T03:21:07;41.13;;;16.95;;
73747;SDS011;62056;52.130;5.428;2022-11-15T03:23:38;30.98;;;15.88;;
73747;SDS011;62056;52.130;5.428;2022-11-15T03:26:08;27.90;;;15.23;;
73747;SDS011;62056;52.130;5.428;2022-11-15T03:28:40;35.20;;;22.70;;
73747;SDS011;62056;52.130;5.428;2022-11-15T03:31:17;24.57;;;14.17;;
73747;SDS011;62056;52.130;5.428;2022-11-15T03:34:04;25.08;;;14.13;;
73747;SDS011;62056;52.130;5.428;2022-11-15T03:36:34;37.33;;;24.45;;
73747;SDS011;62056;52.130;5.428;2022-11-15T03:39:03;28.52;;;15.20;;
73747;SDS011;62056;52.130;5.428;2022-11-15T03:41:37;26.67;;;15.20;;
73747;SDS011;62056;52.130;5.428;2022-11-15T03:44:20;27.37;;;15.17;;
73747;SDS011;62056;52.130;5.428;2022-11-15T03:47:06;24.85;;;14.50;;
73747;SDS011;62056;52.130;5.428;2022-11-15T03:49:38;24.48;;;14.48;;
73747;SDS011;62056;52.130;5.428;2022-11-15T03:52:10;29.65;;;15.70;;
73747;SDS011;62056;52.130;5.428;2022-11-15T03:54:47;23.75;;;14.60;;
73747;SDS011;62056;52.130;5.428;2022-11-15T03:57:15;26.47;;;14.07;;
73747;SDS011;62056;52.130;5.428;2022-11-15T03:59:41;33.33;;;16.88;;
73747;SDS011;62056;52.130;5.428;2022-11-15T04:02:08;25.92;;;14.10;;
73747;SDS011;62056;52.130;5.428;2022-11-15T04:04:34;20.80;;;12.82;;
73747;SDS011;62056;52.130;5.428;2022-11-15T04:07:01;23.73;;;14.52;;
73747;SDS011;62056;52.130;5.428;2022-11-15T04:09:27;14.33;;;10.47;;
73747;SDS011;62056;52.130;5.428;2022-11-15T04:11:54;14.95;;;10.52;;
73747;SDS011;62056;52.130;5.428;2022-11-15T04:14:21;20.58;;;11.38;;
73747;SDS011;62056;52.130;5.428;2022-11-15T04:16:47;26.20;;;13.25;;
73747;SDS011;62056;52.130;5.428;2022-11-15T04:19:14;26.80;;;14.52;;
73747;SDS011;62056;52.130;5.428;2022-11-15T04:22:12;20.33;;;13.60;;
73747;SDS011;62056;52.130;5.428;2022-11-15T04:24:57;31.13;;;16.77;;
73747;SDS011;62056;52.130;5.428;2022-11-15T04:27:23;30.40;;;16.55;;
73747;SDS011;62056;52.130;5.428;2022-11-15T04:29:50;28.48;;;14.70;;
73747;SDS011;62056;52.130;5.428;2022-11-15T04:32:16;26.48;;;14.45;;
73747;SDS011;62056;52.130;5.428;2022-11-15T04:34:43;13.43;;;9.00;;
73747;SDS011;62056;52.130;5.428;2022-11-15T04:37:10;37.05;;;23.17;;
73747;SDS011;62056;52.130;5.428;2022-11-15T04:39:39;21.58;;;13.25;;
73747;SDS011;62056;52.130;5.428;2022-11-15T04:42:07;20.42;;;12.82;;
73747;SDS011;62056;52.130;5.428;2022-11-15T04:44:34;28.27;;;15.70;;
73747;SDS011;62056;52.130;5.428;2022-11-15T04:47:01;23.80;;;14.17;;
73747;SDS011;62056;52.130;5.428;2022-11-15T04:49:28;26.25;;;14.98;;
73747;SDS011;62056;52.130;5.428;2022-11-15T04:51:55;20.92;;;14.85;;
73747;SDS011;62056;52.130;5.428;2022-11-15T04:54:21;18.92;;;11.00;;
73747;SDS011;62056;52.130;5.428;2022-11-15T04:56:48;28.02;;;14.82;;
73747;SDS011;62056;52.130;5.428;2022-11-15T04:59:14;20.33;;;13.97;;
73747;SDS011;62056;52.130;5.428;2022-11-15T05:01:41;26.13;;;14.88;;
73747;SDS011;62056;52.130;5.428;2022-11-15T05:04:10;25.60;;;15.82;;
73747;SDS011;62056;52.130;5.428;2022-11-15T05:06:47;20.00;;;12.55;;
73747;SDS011;62056;52.130;5.428;2022-11-15T05:09:16;21.95;;;12.93;;
73747;SDS011;62056;52.130;5.428;2022-11-15T05:11:43;13.23;;;9.27;;
73747;SDS011;62056;52.130;5.428;2022-11-15T05:14:10;19.38;;;13.32;;
73747;SDS011;62056;52.130;5.428;2022-11-15T05:16:36;25.33;;;13.68;;
73747;SDS011;62056;52.130;5.428;2022-11-15T05:19:03;17.08;;;11.85;;
73747;SDS011;62056;52.130;5.428;2022-11-15T05:21:30;19.95;;;13.68;;
73747;SDS011;62056;52.130;5.428;2022-11-15T05:23:57;19.70;;;13.57;;
73747;SDS011;62056;52.130;5.428;2022-11-15T05:26:24;17.75;;;13.05;;
73747;SDS011;62056;52.130;5.428;2022-11-15T05:28:52;16.13;;;10.18;;
73747;SDS011;62056;52.130;5.428;2022-11-15T05:31:19;27.10;;;13.77;;
73747;SDS011;62056;52.130;5.428;2022-11-15T05:33:46;14.18;;;10.45;;
73747;SDS011;62056;52.130;5.428;2022-11-15T05:36:15;22.23;;;12.00;;
73747;SDS011;62056;52.130;5.428;2022-11-15T05:38:44;23.60;;;13.88;;
73747;SDS011;62056;52.130;5.428;2022-11-15T05:41:14;19.63;;;14.48;;
73747;SDS011;62056;52.130;5.428;2022-11-15T05:43:43;17.95;;;12.43;;
73747;SDS011;62056;52.130;5.428;2022-11-15T05:46:10;15.68;;;11.90;;
73747;SDS011;62056;52.130;5.428;2022-11-15T05:48:39;20.53;;;12.23;;
73747;SDS011;62056;52.130;5.428;2022-11-15T05:51:11;20.13;;;12.27;;
73747;SDS011;62056;52.130;5.428;2022-11-15T05:53:40;21.45;;;14.48;;
73747;SDS011;62056;52.130;5.428;2022-11-15T05:56:07;27.05;;;15.23;;
73747;SDS011;62056;52.130;5.428;2022-11-15T05:58:35;14.45;;;10.50;;
73747;SDS011;62056;52.130;5.428;2022-11-15T06:01:03;19.60;;;11.50;;
73747;SDS011;62056;52.130;5.428;2022-11-15T06:03:30;14.35;;;11.27;;
73747;SDS011;62056;52.130;5.428;2022-11-15T06:05:57;25.33;;;14.77;;
73747;SDS011;62056;52.130;5.428;2022-11-15T06:08:24;21.83;;;14.57;;
73747;SDS011;62056;52.130;5.428;2022-11-15T06:10:51;17.25;;;10.93;;
73747;SDS011;62056;52.130;5.428;2022-11-15T06:13:17;20.40;;;12.83;;
73747;SDS011;62056;52.130;5.428;2022-11-15T06:15:44;19.73;;;12.82;;
73747;SDS011;62056;52.130;5.428;2022-11-15T06:18:10;16.52;;;11.40;;
73747;SDS011;62056;52.130;5.428;2022-11-15T06:20:37;16.88;;;10.15;;
73747;SDS011;62056;52.130;5.428;2022-11-15T06:23:04;21.48;;;13.60;;
73747;SDS011;62056;52.130;5.428;2022-11-15T06:25:31;28.20;;;15.53;;
73747;SDS011;62056;52.130;5.428;2022-11-15T06:27:57;25.25;;;15.00;;
73747;SDS011;62056;52.130;5.428;2022-11-15T06:30:25;15.15;;;11.90;;
73747;SDS011;62056;52.130;5.428;2022-11-15T06:33:02;19.73;;;11.98;;
73747;SDS011;62056;52.130;5.428;2022-11-15T06:35:32;24.45;;;14.00;;
73747;SDS011;62056;52.130;5.428;2022-11-15T06:38:06;27.43;;;15.73;;
73747;SDS011;62056;52.130;5.428;2022-11-15T06:40:35;21.17;;;12.10;;
73747;SDS011;62056;52.130;5.428;2022-11-15T06:43:03;14.70;;;10.32;;
73747;SDS011;62056;52.130;5.428;2022-11-15T06:45:31;28.08;;;15.75;;
73747;SDS011;62056;52.130;5.428;2022-11-15T06:47:58;20.55;;;14.43;;
73747;SDS011;62056;52.130;5.428;2022-11-15T06:50:24;21.57;;;13.63;;
73747;SDS011;62056;52.130;5.428;2022-11-15T06:52:51;22.10;;;13.80;;
73747;SDS011;62056;52.130;5.428;2022-11-15T06:55:18;24.77;;;13.13;;
73747;SDS011;62056;52.130;5.428;2022-11-15T06:57:48;26.00;;;15.45;;
73747;SDS011;62056;52.130;5.428;2022-11-15T07:00:16;23.67;;;12.88;;
73747;SDS011;62056;52.130;5.428;2022-11-15T07:02:43;19.53;;;11.83;;
73747;SDS011;62056;52.130;5.428;2022-11-15T07:05:10;14.48;;;10.40;;
73747;SDS011;62056;52.130;5.428;2022-11-15T07:07:37;22.13;;;14.05;;
73747;SDS011;62056;52.130;5.428;2022-11-15T07:10:04;21.63;;;11.15;;
73747;SDS011;62056;52.130;5.428;2022-11-15T07:12:31;19.48;;;11.65;;
73747;SDS011;62056;52.130;5.428;2022-11-15T07:14:58;15.73;;;10.23;;
73747;SDS011;62056;52.130;5.428;2022-11-15T07:17:24;19.38;;;12.80;;
73747;SDS011;62056;52.130;5.428;2022-11-15T07:19:51;20.85;;;13.85;;
73747;SDS011;62056;52.130;5.428;2022-11-15T07:22:17;19.13;;;11.48;;
73747;SDS011;62056;52.130;5.428;2022-11-15T07:24:44;17.95;;;13.18;;
73747;SDS011;62056;52.130;5.428;2022-11-15T07:27:10;22.60;;;15.00;;
73747;SDS011;62056;52.130;5.428;2022-11-15T07:29:37;14.98;;;10.52;;
73747;SDS011;62056;52.130;5.428;2022-11-15T07:32:04;22.50;;;13.82;;
73747;SDS011;62056;52.130;5.428;2022-11-15T07:34:30;17.48;;;11.88;;
73747;SDS011;62056;52.130;5.428;2022-11-15T07:36:57;26.85;;;13.18;;
73747;SDS011;62056;52.130;5.428;2022-11-15T07:39:24;22.33;;;13.50;;
73747;SDS011;62056;52.130;5.428;2022-11-15T07:41:50;18.63;;;11.15;;
73747;SDS011;62056;52.130;5.428;2022-11-15T07:44:37;14.30;;;9.52;;
73747;SDS011;62056;52.130;5.428;2022-11-15T07:47:03;14.02;;;9.43;;
73747;SDS011;62056;52.130;5.428;2022-11-15T07:49:30;22.85;;;13.45;;
73747;SDS011;62056;52.130;5.428;2022-11-15T07:51:56;22.73;;;13.37;;
73747;SDS011;62056;52.130;5.428;2022-11-15T07:54:23;19.08;;;12.73;;
73747;SDS011;62056;52.130;5.428;2022-11-15T07:56:50;21.55;;;12.07;;
73747;SDS011;62056;52.130;5.428;2022-11-15T07:59:16;16.88;;;11.57;;
73747;SDS011;62056;52.130;5.428;2022-11-15T08:01:43;22.80;;;11.88;;
73747;SDS011;62056;52.130;5.428;2022-11-15T08:04:10;18.00;;;11.63;;
73747;SDS011;62056;52.130;5.428;2022-11-15T08:06:37;15.68;;;11.07;;
73747;SDS011;62056;52.130;5.428;2022-11-15T08:09:04;13.55;;;9.23;;
73747;SDS011;62056;52.130;5.428;2022-11-15T08:11:30;16.55;;;11.85;;
73747;SDS011;62056;52.130;5.428;2022-11-15T08:13:58;14.38;;;10.32;;
73747;SDS011;62056;52.130;5.428;2022-11-15T08:16:24;15.00;;;9.80;;
73747;SDS011;62056;52.130;5.428;2022-11-15T08:18:51;13.82;;;9.30;;
73747;SDS011;62056;52.130;5.428;2022-11-15T08:21:18;12.88;;;8.20;;
73747;SDS011;62056;52.130;5.428;2022-11-15T08:23:46;14.70;;;9.65;;
73747;SDS011;62056;52.130;5.428;2022-11-15T08:26:13;16.90;;;11.30;;
73747;SDS011;62056;52.130;5.428;2022-11-15T08:28:39;13.10;;;9.33;;
73747;SDS011;62056;52.130;5.428;2022-11-15T08:31:06;14.88;;;9.02;;
73747;SDS011;62056;52.130;5.428;2022-11-15T08:33:33;11.57;;;8.63;;
73747;SDS011;62056;52.130;5.428;2022-11-15T08:36:05;11.35;;;8.05;;
73747;SDS011;62056;52.130;5.428;2022-11-15T08:38:32;15.25;;;9.05;;
73747;SDS011;62056;52.130;5.428;2022-11-15T08:41:00;14.57;;;7.80;;
73747;SDS011;62056;52.130;5.428;2022-11-15T08:43:29;12.50;;;8.00;;
73747;SDS011;62056;52.130;5.428;2022-11-15T08:45:57;11.23;;;8.30;;
73747;SDS011;62056;52.130;5.428;2022-11-15T08:48:25;15.48;;;9.13;;
73747;SDS011;62056;52.130;5.428;2022-11-15T08:50:55;8.60;;;7.15;;
73747;SDS011;62056;52.130;5.428;2022-11-15T08:53:23;13.83;;;8.33;;
73747;SDS011;62056;52.130;5.428;2022-11-15T08:55:50;14.88;;;8.63;;
73747;SDS011;62056;52.130;5.428;2022-11-15T08:58:16;9.90;;;8.68;;
73747;SDS011;62056;52.130;5.428;2022-11-15T09:00:43;11.65;;;7.55;;
73747;SDS011;62056;52.130;5.428;2022-11-15T09:03:10;14.02;;;8.85;;
73747;SDS011;62056;52.130;5.428;2022-11-15T09:05:41;11.93;;;8.13;;
73747;SDS011;62056;52.130;5.428;2022-11-15T09:08:08;9.85;;;7.22;;
73747;SDS011;62056;52.130;5.428;2022-11-15T09:10:54;14.38;;;8.23;;
73747;SDS011;62056;52.130;5.428;2022-11-15T09:13:21;9.18;;;5.88;;
73747;SDS011;62056;52.130;5.428;2022-11-15T09:15:58;12.25;;;7.18;;
73747;SDS011;62056;52.130;5.428;2022-11-15T09:18:26;11.57;;;6.97;;
73747;SDS011;62056;52.130;5.428;2022-11-15T09:20:57;9.52;;;6.90;;
73747;SDS011;62056;52.130;5.428;2022-11-15T09:23:24;10.32;;;7.63;;
73747;SDS011;62056;52.130;5.428;2022-11-15T09:25:52;9.85;;;7.93;;
73747;SDS011;62056;52.130;5.428;2022-11-15T09:28:24;10.57;;;7.53;;
73747;SDS011;62056;52.130;5.428;2022-11-15T09:30:51;16.30;;;7.80;;
73747;SDS011;62056;52.130;5.428;2022-11-15T09:33:17;9.38;;;5.07;;
73747;SDS011;62056;52.130;5.428;2022-11-15T09:35:44;10.98;;;5.85;;
73747;SDS011;62056;52.130;5.428;2022-11-15T09:38:11;10.23;;;6.85;;
73747;SDS011;62056;52.130;5.428;2022-11-15T09:40:37;7.97;;;4.68;;
73747;SDS011;62056;52.130;5.428;2022-11-15T09:46:09;6.47;;;4.20;;
73747;SDS011;62056;52.130;5.428;2022-11-15T09:51:33;6.63;;;4.93;;
73747;SDS011;62056;52.130;5.428;2022-11-15T09:54:23;4.82;;;4.35;;
73747;SDS011;62056;52.130;5.428;2022-11-15T10:05:40;7.25;;;5.20;;
73747;SDS011;62056;52.130;5.428;2022-11-15T10:10:49;5.23;;;4.20;;
73747;SDS011;62056;52.130;5.428;2022-11-15T10:13:43;7.03;;;4.50;;
73747;SDS011;62056;52.130;5.428;2022-11-15T10:24:22;3.90;;;2.57;;
73747;SDS011;62056;52.130;5.428;2022-11-15T10:26:51;4.15;;;2.10;;
73747;SDS011;62056;52.130;5.428;2022-11-15T10:29:19;3.60;;;3.00;;
73747;SDS011;62056;52.130;5.428;2022-11-15T10:31:52;4.65;;;2.97;;
73747;SDS011;62056;52.130;5.428;2022-11-15T10:34:21;5.85;;;2.88;;
73747;SDS011;62056;52.130;5.428;2022-11-15T10:36:56;6.23;;;2.03;;
73747;SDS011;62056;52.130;5.428;2022-11-15T10:39:24;2.78;;;2.28;;
73747;SDS011;62056;52.130;5.428;2022-11-15T10:41:51;5.15;;;2.78;;
73747;SDS011;62056;52.130;5.428;2022-11-15T10:44:19;5.18;;;1.67;;
73747;SDS011;62056;52.130;5.428;2022-11-15T10:47:03;3.88;;;2.50;;
73747;SDS011;62056;52.130;5.428;2022-11-15T10:49:33;3.63;;;2.27;;
73747;SDS011;62056;52.130;5.428;2022-11-15T10:52:19;8.35;;;2.75;;
73747;SDS011;62056;52.130;5.428;2022-11-15T10:54:57;2.95;;;2.33;;
73747;SDS011;62056;52.130;5.428;2022-11-15T10:57:32;6.07;;;2.00;;
73747;SDS011;62056;52.130;5.428;2022-11-15T11:00:04;3.05;;;2.13;;
73747;SDS011;62056;52.130;5.428;2022-11-15T11:02:45;3.53;;;1.50;;
73747;SDS011;62056;52.130;5.428;2022-11-15T11:10:37;2.58;;;1.90;;
73747;SDS011;62056;52.130;5.428;2022-11-15T11:13:26;3.97;;;1.45;;
73747;SDS011;62056;52.130;5.428;2022-11-15T11:15:56;1.87;;;1.23;;
73747;SDS011;62056;52.130;5.428;2022-11-15T11:21:25;2.55;;;1.50;;
73747;SDS011;62056;52.130;5.428;2022-11-15T11:24:13;4.03;;;1.95;;
73747;SDS011;62056;52.130;5.428;2022-11-15T11:26:52;2.95;;;1.23;;
73747;SDS011;62056;52.130;5.428;2022-11-15T11:37:51;4.03;;;1.30;;
73747;SDS011;62056;52.130;5.428;2022-11-15T11:40:30;2.05;;;1.10;;
73747;SDS011;62056;52.130;5.428;2022-11-15T11:45:53;2.05;;;1.02;;
73747;SDS011;62056;52.130;5.428;2022-11-15T11:51:17;3.72;;;1.08;;
73747;SDS011;62056;52.130;5.428;2022-11-15T11:54:01;2.47;;;1.10;;
73747;SDS011;62056;52.130;5.428;2022-11-15T11:56:38;2.23;;;0.93;;
73747;SDS011;62056;52.130;5.428;2022-11-15T11:59:19;2.75;;;1.00;;
73747;SDS011;62056;52.130;5.428;2022-11-15T12:01:53;2.10;;;1.02;;
73747;SDS011;62056;52.130;5.428;2022-11-15T12:04:25;5.75;;;1.20;;
73747;SDS011;62056;52.130;5.428;2022-11-15T12:12:39;2.83;;;0.65;;
73747;SDS011;62056;52.130;5.428;2022-11-15T12:15:18;2.92;;;0.82;;
73747;SDS011;62056;52.130;5.428;2022-11-15T12:17:49;4.05;;;0.80;;
73747;SDS011;62056;52.130;5.428;2022-11-15T12:20:18;1.48;;;0.50;;
73747;SDS011;62056;52.130;5.428;2022-11-15T12:25:42;6.38;;;0.70;;
73747;SDS011;62056;52.130;5.428;2022-11-15T12:31:37;2.38;;;0.63;;
73747;SDS011;62056;52.130;5.428;2022-11-15T12:36:45;1.40;;;0.50;;
73747;SDS011;62056;52.130;5.428;2022-11-15T12:39:13;1.35;;;0.55;;
73747;SDS011;62056;52.130;5.428;2022-11-15T12:41:41;3.67;;;1.10;;
73747;SDS011;62056;52.130;5.428;2022-11-15T12:44:10;2.08;;;0.50;;
73747;SDS011;62056;52.130;5.428;2022-11-15T12:59:53;3.83;;;0.80;;
73747;SDS011;62056;52.130;5.428;2022-11-15T13:02:22;5.73;;;0.90;;
73747;SDS011;62056;52.130;5.428;2022-11-15T13:12:59;2.33;;;0.80;;
73747;SDS011;62056;52.130;5.428;2022-11-15T13:18:31;6.13;;;1.33;;
73747;SDS011;62056;52.130;5.428;2022-11-15T13:21:03;3.78;;;1.05;;
73747;SDS011;62056;52.130;5.428;2022-11-15T13:23:52;5.03;;;1.05;;
73747;SDS011;62056;52.130;5.428;2022-11-15T13:26:20;2.67;;;0.90;;
73747;SDS011;62056;52.130;5.428;2022-11-15T13:28:48;3.60;;;1.07;;
73747;SDS011;62056;52.130;5.428;2022-11-15T13:31:28;2.95;;;0.95;;
73747;SDS011;62056;52.130;5.428;2022-11-15T13:34:01;3.25;;;1.20;;
73747;SDS011;62056;52.130;5.428;2022-11-15T13:36:59;2.83;;;0.77;;
73747;SDS011;62056;52.130;5.428;2022-11-15T13:41:55;3.53;;;0.80;;
73747;SDS011;62056;52.130;5.428;2022-11-15T13:44:24;4.45;;;0.70;;
73747;SDS011;62056;52.130;5.428;2022-11-15T13:47:06;3.20;;;0.98;;
73747;SDS011;62056;52.130;5.428;2022-11-15T13:49:39;3.20;;;0.88;;
73747;SDS011;62056;52.130;5.428;2022-11-15T13:52:07;1.65;;;0.80;;
73747;SDS011;62056;52.130;5.428;2022-11-15T13:54:41;2.50;;;0.80;;
73747;SDS011;62056;52.130;5.428;2022-11-15T13:57:14;1.77;;;0.95;;
73747;SDS011;62056;52.130;5.428;2022-11-15T13:59:52;3.75;;;0.73;;
73747;SDS011;62056;52.130;5.428;2022-11-15T14:02:25;4.32;;;0.70;;
73747;SDS011;62056;52.130;5.428;2022-11-15T14:04:58;5.72;;;1.10;;
73747;SDS011;62056;52.130;5.428;2022-11-15T14:12:55;5.75;;;0.80;;
73747;SDS011;62056;52.130;5.428;2022-11-15T14:15:29;2.58;;;1.00;;
73747;SDS011;62056;52.130;5.428;2022-11-15T14:18:03;3.05;;;0.80;;
73747;SDS011;62056;52.130;5.428;2022-11-15T14:20:33;3.87;;;0.53;;
73747;SDS011;62056;52.130;5.428;2022-11-15T14:23:03;4.10;;;1.05;;
73747;SDS011;62056;52.130;5.428;2022-11-15T14:25:54;4.05;;;1.08;;
73747;SDS011;62056;52.130;5.428;2022-11-15T14:30:49;4.13;;;0.70;;
73747;SDS011;62056;52.130;5.428;2022-11-15T14:33:23;3.93;;;0.97;;
73747;SDS011;62056;52.130;5.428;2022-11-15T14:35:55;1.42;;;0.68;;
73747;SDS011;62056;52.130;5.428;2022-11-15T14:38:24;2.63;;;0.52;;
73747;SDS011;62056;52.130;5.428;2022-11-15T14:40:51;1.73;;;0.65;;
73747;SDS011;62056;52.130;5.428;2022-11-15T14:43:20;7.30;;;1.20;;
73747;SDS011;62056;52.130;5.428;2022-11-15T14:45:47;5.00;;;1.17;;
73747;SDS011;62056;52.130;5.428;2022-11-15T14:48:13;4.18;;;0.50;;
73747;SDS011;62056;52.130;5.428;2022-11-15T14:50:40;2.15;;;0.57;;
73747;SDS011;62056;52.130;5.428;2022-11-15T14:53:10;1.02;;;0.50;;
73747;SDS011;62056;52.130;5.428;2022-11-15T14:55:38;2.97;;;0.77;;
73747;SDS011;62056;52.130;5.428;2022-11-15T14:58:05;1.53;;;0.73;;
73747;SDS011;62056;52.130;5.428;2022-11-15T15:00:36;1.27;;;0.60;;
73747;SDS011;62056;52.130;5.428;2022-11-15T15:03:04;6.05;;;0.60;;
73747;SDS011;62056;52.130;5.428;2022-11-15T15:05:35;2.13;;;0.50;;
73747;SDS011;62056;52.130;5.428;2022-11-15T15:08:04;1.75;;;0.60;;
73747;SDS011;62056;52.130;5.428;2022-11-15T15:10:36;1.50;;;0.40;;
73747;SDS011;62056;52.130;5.428;2022-11-15T15:13:17;2.58;;;1.00;;
73747;SDS011;62056;52.130;5.428;2022-11-15T15:15:46;3.17;;;0.43;;
73747;SDS011;62056;52.130;5.428;2022-11-15T15:18:13;1.80;;;0.50;;
73747;SDS011;62056;52.130;5.428;2022-11-15T15:20:41;7.50;;;0.73;;
73747;SDS011;62056;52.130;5.428;2022-11-15T15:23:17;3.07;;;0.50;;
73747;SDS011;62056;52.130;5.428;2022-11-15T15:25:45;2.05;;;0.50;;
73747;SDS011;62056;52.130;5.428;2022-11-15T15:28:14;2.25;;;0.40;;
73747;SDS011;62056;52.130;5.428;2022-11-15T15:30:56;3.53;;;0.50;;
73747;SDS011;62056;52.130;5.428;2022-11-15T15:33:32;0.88;;;0.40;;
73747;SDS011;62056;52.130;5.428;2022-11-15T15:36:02;3.10;;;0.33;;
73747;SDS011;62056;52.130;5.428;2022-11-15T15:38:29;4.65;;;1.60;;
73747;SDS011;62056;52.130;5.428;2022-11-15T15:40:57;2.10;;;0.43;;
73747;SDS011;62056;52.130;5.428;2022-11-15T15:43:25;3.15;;;0.52;;
73747;SDS011;62056;52.130;5.428;2022-11-15T15:45:52;3.08;;;0.60;;
73747;SDS011;62056;52.130;5.428;2022-11-15T15:48:19;5.27;;;0.90;;
73747;SDS011;62056;52.130;5.428;2022-11-15T15:50:45;2.83;;;0.90;;
73747;SDS011;62056;52.130;5.428;2022-11-15T15:53:13;3.85;;;0.70;;
73747;SDS011;62056;52.130;5.428;2022-11-15T15:55:40;1.77;;;0.80;;
73747;SDS011;62056;52.130;5.428;2022-11-15T15:58:07;1.67;;;0.55;;
73747;SDS011;62056;52.130;5.428;2022-11-15T16:00:34;2.60;;;0.70;;
73747;SDS011;62056;52.130;5.428;2022-11-15T16:03:02;2.40;;;0.70;;
73747;SDS011;62056;52.130;5.428;2022-11-15T16:05:28;3.67;;;0.95;;
73747;SDS011;62056;52.130;5.428;2022-11-15T16:07:55;2.35;;;0.40;;
73747;SDS011;62056;52.130;5.428;2022-11-15T16:10:26;2.90;;;0.65;;
73747;SDS011;62056;52.130;5.428;2022-11-15T16:12:54;3.70;;;0.40;;
73747;SDS011;62056;52.130;5.428;2022-11-15T16:15:22;3.05;;;0.50;;
73747;SDS011;62056;52.130;5.428;2022-11-15T16:17:51;2.00;;;0.60;;
73747;SDS011;62056;52.130;5.428;2022-11-15T16:20:23;4.10;;;0.70;;
73747;SDS011;62056;52.130;5.428;2022-11-15T16:23:11;1.55;;;0.40;;
73747;SDS011;62056;52.130;5.428;2022-11-15T16:25:50;2.90;;;0.60;;
73747;SDS011;62056;52.130;5.428;2022-11-15T16:28:29;1.65;;;0.50;;
73747;SDS011;62056;52.130;5.428;2022-11-15T16:33:31;4.43;;;0.30;;
73747;SDS011;62056;52.130;5.428;2022-11-15T16:35:58;4.05;;;0.70;;
73747;SDS011;62056;52.130;5.428;2022-11-15T16:38:25;2.43;;;0.67;;
73747;SDS011;62056;52.130;5.428;2022-11-15T16:40:52;5.13;;;0.90;;
73747;SDS011;62056;52.130;5.428;2022-11-15T16:43:19;2.70;;;0.55;;